createdAt,value
2023-12-21T00:00:21.247Z,7.72
2023-12-21T00:00:37.296Z,7.72
2023-12-21T00:01:08.515Z,7.77
2023-12-21T00:01:33.289Z,7.77
2023-12-21T00:01:56.364Z,7.77
2023-12-21T00:02:29.057Z,7.77
2023-12-21T00:03:00.290Z,7.77
2023-12-21T00:03:33.137Z,7.77
2023-12-21T00:04:04.338Z,7.77
2023-12-21T00:04:33.881Z,7.77
2023-12-21T00:04:56.526Z,7.77
2023-12-21T00:05:24.453Z,7.77
2023-12-21T00:05:41.279Z,7.77
2023-12-21T00:06:13.525Z,7.77
2023-12-21T00:06:33.724Z,7.77
2023-12-21T00:07:00.937Z,7.77
2023-12-21T00:07:32.328Z,7.77
2023-12-21T00:08:05.263Z,7.77
2023-12-21T00:08:32.153Z,7.77
2023-12-21T00:08:52.157Z,7.77
2023-12-21T00:09:09.053Z,7.77
2023-12-21T00:09:32.173Z,7.77
2023-12-21T00:09:56.293Z,7.77
2023-12-21T00:10:28.274Z,7.77
2023-12-21T00:11:00.229Z,7.77
2023-12-21T00:11:18.593Z,7.77
2023-12-21T00:11:38.088Z,7.77
2023-12-21T00:12:04.150Z,7.77
2023-12-21T00:12:32.089Z,7.77
2023-12-21T00:12:52.500Z,7.77
2023-12-21T00:13:25.223Z,7.77
2023-12-21T00:13:57.795Z,7.77
2023-12-21T00:14:31.916Z,7.77
2023-12-21T00:15:00.319Z,7.77
2023-12-21T00:15:33.389Z,7.77
2023-12-21T00:16:04.806Z,7.77
2023-12-21T00:16:32.188Z,7.77
2023-12-21T00:16:52.463Z,7.77
2023-12-21T00:17:24.616Z,7.77
2023-12-21T00:17:40.441Z,7.77
2023-12-21T00:18:12.468Z,7.77
2023-12-21T00:18:33.761Z,7.77
2023-12-21T00:19:01.385Z,7.77
2023-12-21T00:19:32.466Z,7.77
2023-12-21T00:19:48.361Z,7.77
2023-12-21T00:20:20.322Z,7.77
2023-12-21T00:20:36.567Z,7.77
2023-12-21T00:21:11.339Z,7.77
2023-12-21T00:21:33.933Z,7.77
2023-12-21T00:21:56.317Z,7.77
2023-12-21T00:22:28.233Z,7.77
2023-12-21T00:23:00.366Z,7.77
2023-12-21T00:23:18.666Z,7.77
2023-12-21T00:23:37.811Z,7.77
2023-12-21T00:24:04.340Z,7.88
2023-12-21T00:24:32.171Z,7.88
2023-12-21T00:24:52.242Z,7.88
2023-12-21T00:25:25.156Z,7.88
2023-12-21T00:25:56.213Z,7.88
2023-12-21T00:26:12.316Z,7.88
2023-12-21T00:26:35.150Z,7.88
2023-12-21T00:27:00.218Z,7.88
2023-12-21T00:27:34.091Z,7.77
2023-12-21T00:28:04.295Z,7.77
2023-12-21T00:28:20.431Z,7.88
2023-12-21T00:28:37.477Z,7.88
2023-12-21T00:29:08.138Z,7.88
2023-12-21T00:29:32.101Z,7.88
2023-12-21T00:29:56.683Z,7.88
2023-12-21T00:30:28.357Z,7.88
2023-12-21T00:31:01.111Z,7.88
2023-12-21T00:31:32.226Z,7.88
2023-12-21T00:31:48.489Z,7.88
2023-12-21T00:32:20.209Z,7.88
2023-12-21T00:32:36.583Z,7.88
2023-12-21T00:33:09.130Z,7.88
2023-12-21T00:33:32.213Z,7.88
2023-12-21T00:33:56.234Z,7.88
2023-12-21T00:34:28.278Z,7.88
2023-12-21T00:34:44.583Z,7.88
2023-12-21T00:35:16.906Z,7.88
2023-12-21T00:35:37.633Z,7.88
2023-12-21T00:36:06.955Z,7.88
2023-12-21T00:36:32.074Z,7.88
2023-12-21T00:36:52.299Z,7.88
2023-12-21T00:37:24.923Z,7.88
2023-12-21T00:37:56.391Z,7.88
2023-12-21T00:38:13.417Z,7.88
2023-12-21T00:38:33.646Z,7.88
2023-12-21T00:39:00.216Z,7.88
2023-12-21T00:39:32.930Z,7.88
2023-12-21T00:40:04.231Z,7.88
2023-12-21T00:40:20.296Z,7.88
2023-12-21T00:40:37.378Z,7.88
2023-12-21T00:41:09.766Z,7.88
2023-12-21T00:41:32.068Z,7.88
2023-12-21T00:41:56.150Z,7.88
2023-12-21T00:42:28.221Z,7.88
2023-12-21T00:43:06.473Z,7.88
2023-12-21T00:43:32.508Z,7.88
2023-12-21T00:44:04.955Z,7.88
2023-12-21T00:44:32.175Z,7.88
2023-12-21T00:44:52.415Z,7.88
2023-12-21T00:45:24.513Z,7.88
2023-12-21T00:45:56.226Z,7.88
2023-12-21T00:46:28.343Z,7.88
2023-12-21T00:46:44.245Z,7.88
2023-12-21T00:47:16.848Z,7.88
2023-12-21T00:47:38.188Z,7.88
2023-12-21T00:48:04.243Z,7.88
2023-12-21T00:48:32.265Z,7.88
2023-12-21T00:48:52.264Z,7.88
2023-12-21T00:49:25.144Z,7.88
2023-12-21T00:49:56.232Z,7.88
2023-12-21T00:50:28.994Z,7.88
2023-12-21T00:51:00.418Z,7.88
2023-12-21T00:51:33.120Z,7.88
2023-12-21T00:52:04.361Z,7.88
2023-12-21T00:52:32.142Z,7.88
2023-12-21T00:52:52.259Z,7.88
2023-12-21T00:53:08.492Z,7.88
2023-12-21T00:53:32.352Z,7.88
2023-12-21T00:53:56.954Z,7.88
2023-12-21T00:54:28.139Z,7.88
2023-12-21T00:55:01.079Z,7.88
2023-12-21T00:55:32.730Z,7.88
2023-12-21T00:56:06.472Z,7.88
2023-12-21T00:56:32.138Z,7.88
2023-12-21T00:56:52.144Z,7.88
2023-12-21T00:57:24.170Z,7.88
2023-12-21T00:57:56.231Z,7.88
2023-12-21T00:58:13.096Z,7.88
2023-12-21T00:58:33.609Z,7.88
2023-12-21T00:59:00.210Z,7.88
2023-12-21T00:59:32.291Z,7.88
2023-12-21T01:00:04.521Z,7.88
2023-12-21T01:00:21.778Z,7.88
2023-12-21T01:00:37.397Z,7.88
2023-12-21T01:01:08.559Z,7.88
2023-12-21T01:01:32.341Z,7.88
2023-12-21T01:01:56.413Z,7.88
2023-12-21T01:02:28.912Z,7.88
2023-12-21T01:03:01.790Z,7.88
2023-12-21T01:03:33.194Z,7.88
2023-12-21T01:04:04.495Z,7.88
2023-12-21T01:04:32.230Z,7.88
2023-12-21T01:04:52.235Z,7.88
2023-12-21T01:05:24.257Z,7.88
2023-12-21T01:05:56.971Z,7.88
2023-12-21T01:06:28.203Z,7.88
2023-12-21T01:06:44.325Z,7.88
2023-12-21T01:07:16.190Z,7.88
2023-12-21T01:07:42.226Z,7.88
2023-12-21T01:08:06.433Z,7.88
2023-12-21T01:08:32.204Z,7.88
2023-12-21T01:08:52.218Z,7.88
2023-12-21T01:09:24.240Z,7.88
2023-12-21T01:09:56.219Z,7.88
2023-12-21T01:10:13.275Z,7.88
2023-12-21T01:10:33.673Z,7.88
2023-12-21T01:11:00.688Z,7.88
2023-12-21T01:11:32.193Z,7.88
2023-12-21T01:12:04.194Z,7.88
2023-12-21T01:12:20.996Z,7.88
2023-12-21T01:12:37.299Z,7.88
2023-12-21T01:13:08.344Z,7.88
2023-12-21T01:13:32.117Z,7.88
2023-12-21T01:13:56.131Z,7.88
2023-12-21T01:14:33.451Z,7.88
2023-12-21T01:15:00.159Z,7.88
2023-12-21T01:15:16.283Z,7.88
2023-12-21T01:15:37.671Z,7.88
2023-12-21T01:16:05.662Z,7.88
2023-12-21T01:16:32.157Z,7.88
2023-12-21T01:16:54.774Z,7.88
2023-12-21T01:17:24.179Z,7.88
2023-12-21T01:17:57.680Z,7.88
2023-12-21T01:18:28.269Z,7.88
2023-12-21T01:18:44.261Z,7.88
2023-12-21T01:19:16.333Z,7.88
2023-12-21T01:19:32.359Z,7.88
2023-12-21T01:20:05.116Z,7.88
2023-12-21T01:20:32.587Z,7.88
2023-12-21T01:20:52.397Z,7.88
2023-12-21T01:21:25.177Z,7.88
2023-12-21T01:21:56.169Z,7.88
2023-12-21T01:22:29.081Z,7.88
2023-12-21T01:23:00.660Z,7.88
2023-12-21T01:23:33.167Z,7.88
2023-12-21T01:24:04.650Z,7.88
2023-12-21T01:24:36.585Z,7.88
2023-12-21T01:24:52.212Z,7.88
2023-12-21T01:25:08.287Z,7.88
2023-12-21T01:25:33.746Z,7.88
2023-12-21T01:25:57.062Z,7.88
2023-12-21T01:26:28.256Z,7.88
2023-12-21T01:27:01.022Z,7.88
2023-12-21T01:27:33.197Z,7.88
2023-12-21T01:28:06.513Z,7.88
2023-12-21T01:28:32.193Z,7.88
2023-12-21T01:28:52.225Z,7.88
2023-12-21T01:29:24.694Z,7.88
2023-12-21T01:29:56.188Z,7.88
2023-12-21T01:30:13.197Z,7.88
2023-12-21T01:30:35.192Z,7.88
2023-12-21T01:31:00.561Z,8.00
2023-12-21T01:31:32.257Z,7.88
2023-12-21T01:32:04.234Z,7.88
2023-12-21T01:32:21.611Z,7.88
2023-12-21T01:32:37.472Z,7.88
2023-12-21T01:33:08.509Z,8.00
2023-12-21T01:33:32.242Z,8.00
2023-12-21T01:33:56.275Z,8.00
2023-12-21T01:34:29.095Z,8.00
2023-12-21T01:35:00.406Z,8.00
2023-12-21T01:35:16.327Z,8.00
2023-12-21T01:35:37.652Z,8.00
2023-12-21T01:36:04.657Z,8.00
2023-12-21T01:36:32.335Z,8.00
2023-12-21T01:36:52.264Z,8.00
2023-12-21T01:37:24.301Z,8.00
2023-12-21T01:37:56.839Z,8.00
2023-12-21T01:38:28.171Z,8.00
2023-12-21T01:38:44.282Z,8.00
2023-12-21T01:39:16.765Z,8.00
2023-12-21T01:39:37.591Z,8.00
2023-12-21T01:40:04.938Z,8.00
2023-12-21T01:40:32.129Z,8.00
2023-12-21T01:40:52.235Z,8.00
2023-12-21T01:41:24.349Z,8.00
2023-12-21T01:41:58.197Z,8.00
2023-12-21T01:42:13.032Z,8.00
2023-12-21T01:42:33.582Z,8.00
2023-12-21T01:43:02.872Z,8.00
2023-12-21T01:43:32.201Z,8.00
2023-12-21T01:44:04.389Z,8.00
2023-12-21T01:44:21.082Z,8.00
2023-12-21T01:44:37.325Z,8.00
2023-12-21T01:45:08.336Z,8.00
2023-12-21T01:45:32.089Z,8.00
2023-12-21T01:45:56.297Z,8.00
2023-12-21T01:46:29.315Z,8.00
2023-12-21T01:47:00.129Z,8.00
2023-12-21T01:47:16.339Z,8.00
2023-12-21T01:47:37.867Z,8.00
2023-12-21T01:48:04.296Z,8.00
2023-12-21T01:48:32.508Z,8.00
2023-12-21T01:48:52.430Z,8.00
2023-12-21T01:49:24.344Z,8.00
2023-12-21T01:49:56.994Z,8.00
2023-12-21T01:50:28.105Z,8.00
2023-12-21T01:50:44.400Z,8.00
2023-12-21T01:51:16.359Z,8.00
2023-12-21T01:51:32.457Z,8.00
2023-12-21T01:52:04.849Z,8.00
2023-12-21T01:52:32.617Z,8.00
2023-12-21T01:52:52.505Z,8.00
2023-12-21T01:53:25.722Z,8.00
2023-12-21T01:53:40.335Z,8.00
2023-12-21T01:54:12.974Z,8.00
2023-12-21T01:54:33.581Z,8.00
2023-12-21T01:55:00.237Z,8.00
2023-12-21T01:55:16.992Z,8.00
2023-12-21T01:55:39.168Z,8.00
2023-12-21T01:56:04.163Z,8.00
2023-12-21T01:56:34.827Z,8.00
2023-12-21T01:56:52.106Z,8.00
2023-12-21T01:57:08.213Z,8.00
2023-12-21T01:57:32.215Z,8.00
2023-12-21T01:57:56.192Z,8.00
2023-12-21T01:58:29.097Z,8.00
2023-12-21T01:59:00.181Z,8.00
2023-12-21T01:59:16.194Z,8.00
2023-12-21T01:59:37.600Z,8.00
2023-12-21T02:00:04.381Z,8.00
2023-12-21T02:00:32.388Z,8.00
2023-12-21T02:00:52.265Z,8.00
2023-12-21T02:01:24.237Z,8.00
2023-12-21T02:01:57.100Z,8.00
2023-12-21T02:02:28.214Z,8.00
2023-12-21T02:03:00.938Z,8.00
2023-12-21T02:03:32.400Z,8.11
2023-12-21T02:04:04.941Z,8.11
2023-12-21T02:04:32.304Z,8.00
2023-12-21T02:04:52.185Z,8.00
2023-12-21T02:05:24.100Z,8.00
2023-12-21T02:05:40.389Z,8.00
2023-12-21T02:06:12.924Z,8.00
2023-12-21T02:06:33.659Z,8.00
2023-12-21T02:07:00.254Z,8.00
2023-12-21T02:07:32.144Z,8.00
2023-12-21T02:07:48.204Z,8.00
2023-12-21T02:08:21.036Z,8.00
2023-12-21T02:08:37.271Z,8.00
2023-12-21T02:09:08.365Z,8.00
2023-12-21T02:09:32.114Z,8.11
2023-12-21T02:10:28.987Z,8.11
2023-12-21T02:11:00.670Z,8.00
2023-12-21T02:11:33.330Z,8.00
2023-12-21T02:12:04.225Z,8.00
2023-12-21T02:12:32.194Z,8.00
2023-12-21T02:12:52.225Z,8.11
2023-12-21T02:13:24.450Z,8.11
2023-12-21T02:13:58.055Z,8.11
2023-12-21T02:14:28.234Z,8.11
2023-12-21T02:15:01.735Z,8.11
2023-12-21T02:15:32.183Z,8.11
2023-12-21T02:16:05.320Z,8.11
2023-12-21T02:16:32.804Z,8.11
2023-12-21T02:16:52.174Z,8.11
2023-12-21T02:17:10.450Z,8.11
2023-12-21T02:17:32.180Z,8.11
2023-12-21T02:17:56.311Z,8.11
2023-12-21T02:18:28.340Z,8.11
2023-12-21T02:19:00.503Z,8.11
2023-12-21T02:19:17.398Z,8.11
2023-12-21T02:19:37.712Z,8.11
2023-12-21T02:20:04.168Z,8.11
2023-12-21T02:20:32.264Z,8.11
2023-12-21T02:20:52.224Z,8.11
2023-12-21T02:21:25.034Z,8.11
2023-12-21T02:21:57.533Z,8.11
2023-12-21T02:22:28.933Z,8.11
2023-12-21T02:23:00.276Z,8.11
2023-12-21T02:23:33.271Z,8.11
2023-12-21T02:24:04.145Z,8.11
2023-12-21T02:24:32.597Z,8.11
2023-12-21T02:24:52.131Z,8.11
2023-12-21T02:25:24.182Z,8.11
2023-12-21T02:25:40.270Z,8.11
2023-12-21T02:26:12.262Z,8.11
2023-12-21T02:26:33.836Z,8.11
2023-12-21T02:27:00.873Z,8.11
2023-12-21T02:27:32.643Z,8.11
2023-12-21T02:27:48.197Z,8.11
2023-12-21T02:28:20.240Z,8.11
2023-12-21T02:28:36.528Z,8.11
2023-12-21T02:29:08.992Z,8.11
2023-12-21T02:29:32.082Z,8.11
2023-12-21T02:29:56.106Z,8.11
2023-12-21T02:30:28.280Z,8.11
2023-12-21T02:30:44.492Z,8.11
2023-12-21T02:31:16.988Z,8.11
2023-12-21T02:31:37.707Z,8.11
2023-12-21T02:32:04.382Z,8.11
2023-12-21T02:32:32.352Z,8.11
2023-12-21T02:32:52.128Z,8.11
2023-12-21T02:33:24.994Z,8.11
2023-12-21T02:33:56.216Z,8.11
2023-12-21T02:34:12.362Z,8.11
2023-12-21T02:34:33.612Z,8.11
2023-12-21T02:35:00.131Z,8.11
2023-12-21T02:35:16.208Z,8.11
2023-12-21T02:35:37.864Z,8.11
2023-12-21T02:36:04.231Z,8.11
2023-12-21T02:36:22.709Z,8.11
2023-12-21T02:36:37.420Z,8.11
2023-12-21T02:37:08.148Z,8.11
2023-12-21T02:37:32.253Z,8.11
2023-12-21T02:37:56.106Z,8.11
2023-12-21T02:38:29.798Z,8.11
2023-12-21T02:39:01.139Z,8.11
2023-12-21T02:39:32.212Z,8.11
2023-12-21T02:39:48.182Z,8.11
2023-12-21T02:40:20.625Z,8.11
2023-12-21T02:40:36.469Z,8.11
2023-12-21T02:41:09.503Z,8.11
2023-12-21T02:41:33.694Z,8.11
2023-12-21T02:41:56.105Z,8.11
2023-12-21T02:42:28.361Z,8.11
2023-12-21T02:42:44.370Z,8.11
2023-12-21T02:43:16.949Z,8.11
2023-12-21T02:43:39.562Z,8.11
2023-12-21T02:44:04.172Z,8.11
2023-12-21T02:44:32.133Z,8.11
2023-12-21T02:44:52.240Z,8.11
2023-12-21T02:45:24.888Z,8.11
2023-12-21T02:45:56.169Z,8.11
2023-12-21T02:46:12.227Z,8.11
2023-12-21T02:46:33.754Z,8.11
2023-12-21T02:47:00.196Z,8.11
2023-12-21T02:47:34.321Z,8.11
2023-12-21T02:48:04.208Z,8.11
2023-12-21T02:48:20.387Z,8.11
2023-12-21T02:48:38.875Z,8.11
2023-12-21T02:49:24.392Z,8.11
2023-12-21T02:49:56.390Z,8.11
2023-12-21T02:50:28.239Z,8.11
2023-12-21T02:51:00.197Z,8.11
2023-12-21T02:51:16.251Z,8.11
2023-12-21T02:51:37.656Z,8.11
2023-12-21T02:52:04.414Z,8.11
2023-12-21T02:52:32.228Z,8.11
2023-12-21T02:52:52.240Z,8.11
2023-12-21T02:53:24.283Z,8.11
2023-12-21T02:53:56.141Z,8.11
2023-12-21T02:54:28.184Z,8.11
2023-12-21T02:54:44.349Z,8.11
2023-12-21T02:55:16.829Z,8.11
2023-12-21T02:55:37.647Z,8.11
2023-12-21T02:56:04.143Z,8.11
2023-12-21T02:56:32.215Z,8.11
2023-12-21T02:56:52.161Z,8.11
2023-12-21T02:57:25.388Z,8.22
2023-12-21T02:57:56.195Z,8.22
2023-12-21T02:58:29.402Z,8.22
2023-12-21T02:59:00.180Z,8.22
2023-12-21T02:59:33.369Z,8.22
2023-12-21T03:00:04.326Z,8.22
2023-12-21T03:00:33.778Z,8.22
2023-12-21T03:00:55.505Z,8.22
2023-12-21T03:01:15.477Z,8.22
2023-12-21T03:01:34.636Z,8.22
2023-12-21T03:01:57.106Z,8.22
2023-12-21T03:02:28.092Z,8.22
2023-12-21T03:02:46.546Z,8.22
2023-12-21T03:03:16.419Z,8.22
2023-12-21T03:03:37.748Z,8.22
2023-12-21T03:04:05.003Z,8.22
2023-12-21T03:04:32.184Z,8.22
2023-12-21T03:04:52.078Z,8.22
2023-12-21T03:05:24.172Z,8.22
2023-12-21T03:05:56.323Z,8.22
2023-12-21T03:06:13.072Z,8.22
2023-12-21T03:06:33.858Z,8.22
2023-12-21T03:07:00.187Z,8.22
2023-12-21T03:07:32.370Z,8.22
2023-12-21T03:08:04.121Z,8.22
2023-12-21T03:08:21.039Z,8.22
2023-12-21T03:08:38.787Z,8.22
2023-12-21T03:09:09.588Z,8.22
2023-12-21T03:09:32.133Z,8.22
2023-12-21T03:09:57.644Z,8.22
2023-12-21T03:10:29.003Z,8.22
2023-12-21T03:11:00.100Z,8.22
2023-12-21T03:11:33.078Z,8.22
2023-12-21T03:12:04.249Z,8.22
2023-12-21T03:12:32.128Z,8.22
2023-12-21T03:12:52.599Z,8.22
2023-12-21T03:13:24.283Z,8.22
2023-12-21T03:13:40.290Z,8.22
2023-12-21T03:14:13.710Z,8.22
2023-12-21T03:14:33.879Z,8.22
2023-12-21T03:15:01.513Z,8.22
2023-12-21T03:15:32.063Z,8.22
2023-12-21T03:15:48.696Z,8.22
2023-12-21T03:16:21.202Z,8.22
2023-12-21T03:16:52.356Z,8.22
2023-12-21T03:17:24.145Z,8.22
2023-12-21T03:17:40.375Z,8.22
2023-12-21T03:18:13.425Z,8.22
2023-12-21T03:18:33.598Z,8.22
2023-12-21T03:19:00.213Z,8.22
2023-12-21T03:19:32.193Z,8.22
2023-12-21T03:19:48.308Z,8.22
2023-12-21T03:20:20.833Z,8.22
2023-12-21T03:20:52.403Z,8.22
2023-12-21T03:21:08.217Z,8.22
2023-12-21T03:21:34.772Z,8.22
2023-12-21T03:21:56.150Z,8.22
2023-12-21T03:22:36.690Z,8.27
2023-12-21T03:23:00.167Z,8.27
2023-12-21T03:23:16.339Z,8.27
2023-12-21T03:23:39.793Z,8.27
2023-12-21T03:24:04.094Z,8.27
2023-12-21T03:24:52.389Z,8.27
2023-12-21T03:25:24.202Z,8.27
2023-12-21T03:25:40.349Z,8.27
2023-12-21T03:26:12.174Z,8.27
2023-12-21T03:26:33.668Z,8.27
2023-12-21T03:27:01.076Z,8.27
2023-12-21T03:27:32.398Z,8.27
2023-12-21T03:27:51.284Z,8.27
2023-12-21T03:28:20.240Z,8.27
2023-12-21T03:28:54.137Z,8.27
2023-12-21T03:29:24.366Z,8.27
2023-12-21T03:29:40.465Z,8.27
2023-12-21T03:30:13.811Z,8.27
2023-12-21T03:30:33.712Z,8.27
2023-12-21T03:31:00.324Z,8.27
2023-12-21T03:31:32.344Z,8.27
2023-12-21T03:31:48.215Z,8.27
2023-12-21T03:32:20.841Z,8.27
2023-12-21T03:32:52.559Z,8.27
2023-12-21T03:33:08.376Z,8.27
2023-12-21T03:33:32.147Z,8.27
2023-12-21T03:33:56.425Z,8.27
2023-12-21T03:34:28.853Z,8.27
2023-12-21T03:35:00.612Z,8.27
2023-12-21T03:35:16.143Z,8.27
2023-12-21T03:35:37.666Z,8.27
2023-12-21T03:36:04.107Z,8.27
2023-12-21T03:36:32.161Z,8.27
2023-12-21T03:36:52.058Z,8.27
2023-12-21T03:37:24.110Z,8.27
2023-12-21T03:37:40.340Z,8.27
2023-12-21T03:38:12.136Z,8.27
2023-12-21T03:38:34.127Z,8.27
2023-12-21T03:39:01.167Z,8.27
2023-12-21T03:39:32.342Z,8.27
2023-12-21T03:39:48.230Z,8.27
2023-12-21T03:40:20.425Z,8.27
2023-12-21T03:40:52.174Z,8.27
2023-12-21T03:41:24.075Z,8.27
2023-12-21T03:41:40.223Z,8.27
2023-12-21T03:42:12.737Z,8.27
2023-12-21T03:42:33.654Z,8.27
2023-12-21T03:43:02.609Z,8.27
2023-12-21T03:43:32.186Z,8.27
2023-12-21T03:43:48.262Z,8.27
2023-12-21T03:44:20.875Z,8.27
2023-12-21T03:44:52.163Z,8.27
2023-12-21T03:45:24.912Z,8.27
2023-12-21T03:45:56.622Z,8.27
2023-12-21T03:46:29.797Z,8.27
2023-12-21T03:47:00.086Z,8.27
2023-12-21T03:47:32.883Z,8.27
2023-12-21T03:48:04.414Z,8.27
2023-12-21T03:48:32.241Z,8.27
2023-12-21T03:48:52.617Z,8.27
2023-12-21T03:49:24.148Z,8.27
2023-12-21T03:49:40.295Z,8.27
2023-12-21T03:50:12.601Z,8.27
2023-12-21T03:50:33.600Z,8.27
2023-12-21T03:51:00.993Z,8.27
2023-12-21T03:51:32.101Z,8.27
2023-12-21T03:51:48.266Z,8.27
2023-12-21T03:52:20.135Z,8.27
2023-12-21T03:52:54.870Z,8.27
2023-12-21T03:53:09.202Z,8.27
2023-12-21T03:53:32.165Z,8.27
2023-12-21T03:53:56.840Z,8.27
2023-12-21T03:54:28.089Z,8.27
2023-12-21T03:54:44.324Z,8.27
2023-12-21T03:55:16.953Z,8.27
2023-12-21T03:55:40.346Z,8.27
2023-12-21T03:56:04.130Z,8.38
2023-12-21T03:56:32.154Z,8.38
2023-12-21T03:56:52.131Z,8.38
2023-12-21T03:57:24.767Z,8.38
2023-12-21T03:57:56.118Z,8.27
2023-12-21T03:58:29.018Z,8.27
2023-12-21T03:59:00.077Z,8.27
2023-12-21T03:59:33.209Z,8.27
2023-12-21T04:00:04.253Z,8.27
2023-12-21T04:00:32.377Z,8.27
2023-12-21T04:00:52.164Z,8.27
2023-12-21T04:01:24.899Z,8.27
2023-12-21T04:01:40.332Z,8.27
2023-12-21T04:02:12.124Z,8.27
2023-12-21T04:02:33.670Z,8.27
2023-12-21T04:03:02.397Z,8.27
2023-12-21T04:03:32.233Z,8.38
2023-12-21T04:03:48.225Z,8.38
2023-12-21T04:04:20.172Z,8.27
2023-12-21T04:04:52.273Z,8.38
2023-12-21T04:05:08.991Z,8.38
2023-12-21T04:05:32.187Z,8.27
2023-12-21T04:05:56.177Z,8.27
2023-12-21T04:06:29.132Z,8.27
2023-12-21T04:06:44.205Z,8.27
2023-12-21T04:07:16.866Z,8.38
2023-12-21T04:07:37.695Z,8.38
2023-12-21T04:08:04.376Z,8.38
2023-12-21T04:08:32.688Z,8.38
2023-12-21T04:08:52.161Z,8.38
2023-12-21T04:09:25.179Z,8.38
2023-12-21T04:09:56.225Z,8.38
2023-12-21T04:10:12.289Z,8.38
2023-12-21T04:10:33.823Z,8.38
2023-12-21T04:11:00.226Z,8.38
2023-12-21T04:11:33.248Z,8.38
2023-12-21T04:12:04.031Z,8.38
2023-12-21T04:12:20.231Z,8.38
2023-12-21T04:12:52.916Z,8.38
2023-12-21T04:13:24.311Z,8.38
2023-12-21T04:13:40.246Z,8.38
2023-12-21T04:14:12.098Z,8.38
2023-12-21T04:14:28.206Z,8.38
2023-12-21T04:15:01.820Z,8.38
2023-12-21T04:15:32.590Z,8.38
2023-12-21T04:15:48.139Z,8.38
2023-12-21T04:16:20.232Z,8.38
2023-12-21T04:16:52.309Z,8.38
2023-12-21T04:17:24.099Z,8.38
2023-12-21T04:17:41.714Z,8.38
2023-12-21T04:18:13.294Z,8.38
2023-12-21T04:18:33.774Z,8.38
2023-12-21T04:19:00.262Z,8.38
2023-12-21T04:19:33.601Z,8.38
2023-12-21T04:19:48.171Z,8.38
2023-12-21T04:20:20.883Z,8.38
2023-12-21T04:20:52.116Z,8.38
2023-12-21T04:21:26.064Z,8.38
2023-12-21T04:21:56.086Z,8.38
2023-12-21T04:22:14.190Z,8.38
2023-12-21T04:22:33.780Z,8.38
2023-12-21T04:23:00.123Z,8.38
2023-12-21T04:23:33.328Z,8.38
2023-12-21T04:24:04.037Z,8.38
2023-12-21T04:24:20.228Z,8.38
2023-12-21T04:24:52.768Z,8.38
2023-12-21T04:25:24.155Z,8.38
2023-12-21T04:25:40.299Z,8.38
2023-12-21T04:26:12.088Z,8.38
2023-12-21T04:26:28.134Z,8.38
2023-12-21T04:27:00.960Z,8.38
2023-12-21T04:27:32.073Z,8.27
2023-12-21T04:27:48.166Z,8.27
2023-12-21T04:28:20.110Z,8.27
2023-12-21T04:28:52.311Z,8.27
2023-12-21T04:29:24.129Z,8.27
2023-12-21T04:29:40.285Z,8.27
2023-12-21T04:30:13.009Z,8.27
2023-12-21T04:30:34.164Z,8.27
2023-12-21T04:31:00.098Z,8.38
2023-12-21T04:31:32.166Z,8.38
2023-12-21T04:31:48.233Z,8.38
2023-12-21T04:32:20.882Z,8.38
2023-12-21T04:32:52.575Z,8.38
2023-12-21T04:33:24.986Z,8.38
2023-12-21T04:33:56.152Z,8.38
2023-12-21T04:34:28.871Z,8.38
2023-12-21T04:35:00.319Z,8.38
2023-12-21T04:35:16.664Z,8.38
2023-12-21T04:35:37.651Z,8.38
2023-12-21T04:36:05.581Z,8.38
2023-12-21T04:36:32.141Z,8.27
2023-12-21T04:36:52.082Z,8.27
2023-12-21T04:37:08.209Z,8.27
2023-12-21T04:37:32.168Z,8.27
2023-12-21T04:37:56.762Z,8.27
2023-12-21T04:38:28.545Z,8.27
2023-12-21T04:38:44.154Z,8.27
2023-12-21T04:39:16.138Z,8.38
2023-12-21T04:39:37.636Z,8.38
2023-12-21T04:40:05.011Z,8.38
2023-12-21T04:40:32.156Z,8.38
2023-12-21T04:40:52.097Z,8.38
2023-12-21T04:41:24.214Z,8.38
2023-12-21T04:41:40.260Z,8.38
2023-12-21T04:42:12.758Z,8.38
2023-12-21T04:42:33.663Z,8.38
2023-12-21T04:43:01.567Z,8.38
2023-12-21T04:43:32.111Z,8.38
2023-12-21T04:43:48.180Z,8.38
2023-12-21T04:44:20.871Z,8.38
2023-12-21T04:44:53.557Z,8.38
2023-12-21T04:45:25.004Z,8.38
2023-12-21T04:45:56.123Z,8.38
2023-12-21T04:46:28.991Z,8.38
2023-12-21T04:47:00.031Z,8.38
2023-12-21T04:47:32.765Z,8.38
2023-12-21T04:48:04.150Z,8.38
2023-12-21T04:48:32.287Z,8.38
2023-12-21T04:48:52.132Z,8.38
2023-12-21T04:49:24.277Z,8.38
2023-12-21T04:49:40.204Z,8.38
2023-12-21T04:50:12.210Z,8.38
2023-12-21T04:50:33.881Z,8.38
2023-12-21T04:51:00.934Z,8.38
2023-12-21T04:51:32.062Z,8.38
2023-12-21T04:51:48.110Z,8.38
2023-12-21T04:52:20.222Z,8.38
2023-12-21T04:52:52.572Z,8.27
2023-12-21T04:53:24.144Z,8.27
2023-12-21T04:53:40.220Z,8.27
2023-12-21T04:54:12.764Z,8.27
2023-12-21T04:54:33.663Z,8.27
2023-12-21T04:55:00.117Z,8.27
2023-12-21T04:55:17.205Z,8.27
2023-12-21T04:55:39.979Z,8.27
2023-12-21T04:56:05.528Z,8.27
2023-12-21T04:56:21.144Z,8.27
2023-12-21T04:56:52.284Z,8.27
2023-12-21T04:57:08.645Z,8.27
2023-12-21T04:57:32.131Z,8.27
2023-12-21T04:57:56.014Z,8.27
2023-12-21T04:58:28.804Z,8.27
2023-12-21T04:59:00.047Z,8.27
2023-12-21T04:59:16.626Z,8.38
2023-12-21T04:59:37.629Z,8.38
2023-12-21T05:00:05.006Z,8.38
2023-12-21T05:00:32.221Z,8.38
2023-12-21T05:00:55.264Z,8.38
2023-12-21T05:01:24.223Z,8.38
2023-12-21T05:01:40.306Z,8.38
2023-12-21T05:02:12.041Z,8.38
2023-12-21T05:02:33.760Z,8.38
2023-12-21T05:03:00.128Z,8.38
2023-12-21T05:03:32.569Z,8.38
2023-12-21T05:03:48.182Z,8.38
2023-12-21T05:04:21.389Z,8.38
2023-12-21T05:04:52.056Z,8.38
2023-12-21T05:05:24.869Z,8.38
2023-12-21T05:05:56.145Z,8.38
2023-12-21T05:06:28.954Z,8.38
2023-12-21T05:07:01.758Z,8.38
2023-12-21T05:07:32.999Z,8.38
2023-12-21T05:08:04.057Z,8.38
2023-12-21T05:08:32.176Z,8.38
2023-12-21T05:08:52.004Z,8.38
2023-12-21T05:09:08.366Z,8.38
2023-12-21T05:09:32.247Z,8.38
2023-12-21T05:10:02.472Z,8.38
2023-12-21T05:10:28.100Z,8.27
2023-12-21T05:10:44.673Z,8.27
2023-12-21T05:11:17.361Z,8.27
2023-12-21T05:11:37.674Z,8.27
2023-12-21T05:12:08.760Z,8.27
2023-12-21T05:12:32.138Z,8.27
2023-12-21T05:12:52.612Z,8.27
2023-12-21T05:13:24.336Z,8.27
2023-12-21T05:13:40.352Z,8.27
2023-12-21T05:14:13.352Z,8.27
2023-12-21T05:14:33.666Z,8.27
2023-12-21T05:15:00.013Z,8.27
2023-12-21T05:15:16.860Z,8.27
2023-12-21T05:15:39.177Z,8.27
2023-12-21T05:16:04.580Z,8.27
2023-12-21T05:16:21.186Z,8.27
2023-12-21T05:16:52.007Z,8.27
2023-12-21T05:17:24.943Z,8.27
2023-12-21T05:17:56.218Z,8.27
2023-12-21T05:18:28.968Z,8.27
2023-12-21T05:19:00.108Z,8.27
2023-12-21T05:19:33.917Z,8.27
2023-12-21T05:20:04.143Z,8.27
2023-12-21T05:20:32.186Z,8.38
2023-12-21T05:20:53.372Z,8.38
2023-12-21T05:21:24.049Z,8.38
2023-12-21T05:21:57.219Z,8.38
2023-12-21T05:22:28.056Z,8.38
2023-12-21T05:23:01.087Z,8.38
2023-12-21T05:23:32.137Z,8.38
2023-12-21T05:24:05.002Z,8.38
2023-12-21T05:24:32.393Z,8.38
2023-12-21T05:24:52.809Z,8.38
2023-12-21T05:25:24.182Z,8.38
2023-12-21T05:25:56.477Z,8.38
2023-12-21T05:26:14.417Z,8.38
2023-12-21T05:26:33.643Z,8.38
2023-12-21T05:27:00.045Z,8.38
2023-12-21T05:27:32.040Z,8.38
2023-12-21T05:28:04.074Z,8.38
2023-12-21T05:28:21.038Z,8.38
2023-12-21T05:28:51.996Z,8.38
2023-12-21T05:29:08.206Z,8.38
2023-12-21T05:29:32.137Z,8.38
2023-12-21T05:29:56.116Z,8.38
2023-12-21T05:30:28.851Z,8.38
2023-12-21T05:31:02.594Z,8.27
2023-12-21T05:31:16.370Z,8.27
2023-12-21T05:31:40.315Z,8.27
2023-12-21T05:32:04.034Z,8.27
2023-12-21T05:32:32.224Z,8.27
2023-12-21T05:32:52.340Z,8.27
2023-12-21T05:33:25.703Z,8.27
2023-12-21T05:33:40.214Z,8.27
2023-12-21T05:34:12.265Z,8.27
2023-12-21T05:34:33.819Z,8.27
2023-12-21T05:35:01.033Z,8.27
2023-12-21T05:35:32.028Z,8.27
2023-12-21T05:35:48.374Z,8.27
2023-12-21T05:36:20.033Z,8.27
2023-12-21T05:36:52.025Z,8.27
2023-12-21T05:37:25.079Z,8.27
2023-12-21T05:37:56.024Z,8.27
2023-12-21T05:38:29.238Z,8.27
2023-12-21T05:39:00.874Z,8.27
2023-12-21T05:39:32.734Z,8.27
2023-12-21T05:40:04.157Z,8.27
2023-12-21T05:40:32.177Z,8.27
2023-12-21T05:40:52.056Z,8.27
2023-12-21T05:41:08.340Z,8.27
2023-12-21T05:41:32.176Z,8.27
2023-12-21T05:41:56.019Z,8.27
2023-12-21T05:42:28.928Z,8.38
2023-12-21T05:43:00.002Z,8.38
2023-12-21T05:43:16.190Z,8.38
2023-12-21T05:43:37.806Z,8.38
2023-12-21T05:44:04.022Z,8.38
2023-12-21T05:44:32.373Z,8.27
2023-12-21T05:44:52.048Z,8.27
2023-12-21T05:45:24.178Z,8.27
2023-12-21T05:45:40.425Z,8.27
2023-12-21T05:46:12.308Z,8.27
2023-12-21T05:46:33.843Z,8.27
2023-12-21T05:47:00.912Z,8.27
2023-12-21T05:47:32.067Z,8.27
2023-12-21T05:47:48.146Z,8.27
2023-12-21T05:48:20.191Z,8.27
2023-12-21T05:48:52.104Z,8.27
2023-12-21T05:49:24.569Z,8.27
2023-12-21T05:49:58.972Z,8.27
2023-12-21T05:50:28.557Z,8.27
2023-12-21T05:50:44.121Z,8.27
2023-12-21T05:51:16.959Z,8.27
2023-12-21T05:51:37.709Z,8.38